Time;durP1;ratioP1;P1;durP2;ratioP2;P2;SDS_P1;SDS_P2;PMS_P1;PMS_P2;Temp;Humidity;BMP_temperature;BMP_pressure;BME280_temperature;BME280_humidity;BME280_pressure;Samples;Min_cycle;Max_cycle;Signal;HPM_P1;HPM_P2
2020/12/23 00:00:18;;;;;;;8.68;6.10;;;-0.70;84.70;;;;;;5036853;28;20032;-85
2020/12/23 00:02:44;;;;;;;10.20;6.28;;;-0.70;84.60;;;;;;5044730;28;20371;-87
2020/12/23 00:05:17;;;;;;;11.25;6.70;;;-0.70;84.40;;;;;;5053639;28;20068;-86
2020/12/23 00:07:44;;;;;;;9.40;6.50;;;-0.70;84.30;;;;;;5062042;28;20471;-86
2020/12/23 00:10:11;;;;;;;11.25;7.22;;;-0.80;84.40;;;;;;5049885;28;20152;-86
2020/12/23 00:12:37;;;;;;;13.13;6.03;;;-0.80;84.50;;;;;;5048017;28;20025;-86
2020/12/23 00:15:05;;;;;;;11.20;6.10;;;-0.70;84.60;;;;;;5050351;28;20528;-86
2020/12/23 00:17:31;;;;;;;11.93;7.45;;;-0.60;84.60;;;;;;5048878;28;20036;-87
2020/12/23 00:19:57;;;;;;;8.77;5.82;;;-0.60;84.50;;;;;;5052604;28;20394;-88
2020/12/23 00:22:23;;;;;;;11.18;6.40;;;-0.60;84.40;;;;;;5041612;28;20022;-86
2020/12/23 00:24:49;;;;;;;10.32;5.93;;;-0.50;84.10;;;;;;5052517;28;20021;-85
2020/12/23 00:27:15;;;;;;;9.23;5.43;;;-0.50;84.20;;;;;;5050806;28;20028;-86
2020/12/23 00:29:41;;;;;;;10.13;5.97;;;-0.50;84.50;;;;;;5054500;28;20077;-85
2020/12/23 00:32:06;;;;;;;9.40;6.65;;;-0.50;83.80;;;;;;5041899;28;20064;-87
2020/12/23 00:34:33;;;;;;;10.77;7.00;;;-0.60;84.00;;;;;;5017242;28;20025;-86
2020/12/23 00:37:00;;;;;;;7.28;5.25;;;-0.50;84.10;;;;;;5034808;28;20037;-86
2020/12/23 00:39:27;;;;;;;11.48;5.60;;;-0.50;84.10;;;;;;5037402;28;20025;-85
2020/12/23 00:41:53;;;;;;;10.20;6.60;;;-0.50;84.10;;;;;;5036568;28;20044;-86
2020/12/23 00:44:19;;;;;;;7.35;5.03;;;-0.50;84.20;;;;;;5037758;28;20044;-87
2020/12/23 00:46:46;;;;;;;12.07;7.43;;;-0.40;85.00;;;;;;5038009;28;20025;-85
2020/12/23 00:49:12;;;;;;;9.70;6.55;;;-0.40;84.40;;;;;;5036708;28;20029;-86
2020/12/23 00:51:38;;;;;;;9.88;6.10;;;-0.30;84.40;;;;;;5012217;28;20394;-87
2020/12/23 00:54:04;;;;;;;11.45;6.70;;;-0.30;84.00;;;;;;5033828;28;20028;-86
2020/12/23 00:56:30;;;;;;;12.40;7.38;;;-0.30;84.00;;;;;;5033913;28;20029;-85
2020/12/23 00:58:55;;;;;;;11.80;7.63;;;-0.30;84.10;;;;;;5042786;28;20076;-86
2020/12/23 01:01:21;;;;;;;10.60;5.90;;;-0.20;84.10;;;;;;5043904;28;20021;-84
2020/12/23 01:03:47;;;;;;;10.68;5.95;;;-0.20;83.90;;;;;;5041856;28;20041;-86
2020/12/23 01:06:13;;;;;;;11.30;6.05;;;-0.30;83.80;;;;;;5033809;28;20537;-84
2020/12/23 01:08:42;;;;;;;13.25;7.45;;;-0.40;84.10;;;;;;5046084;28;20075;-84
2020/12/23 01:11:11;;;;;;;14.60;9.18;;;-0.40;84.40;;;;;;5052737;28;20017;-86
2020/12/23 01:13:37;;;;;;;13.25;6.68;;;-0.50;84.60;;;;;;5054605;28;20075;-86
2020/12/23 01:16:05;;;;;;;12.98;7.65;;;-0.60;85.00;;;;;;5049074;28;20099;-85
2020/12/23 01:18:31;;;;;;;12.80;7.85;;;-0.70;85.50;;;;;;5035734;28;20480;-86
2020/12/23 01:20:57;;;;;;;16.67;7.57;;;-0.60;85.70;;;;;;5040574;28;20027;-87
2020/12/23 01:23:23;;;;;;;15.65;8.40;;;-0.60;85.70;;;;;;5035512;28;20022;-87
2020/12/23 01:25:53;;;;;;;13.90;7.78;;;-0.60;86.10;;;;;;5040115;28;20029;-88
2020/12/23 01:28:19;;;;;;;17.85;8.80;;;-0.60;86.00;;;;;;5046293;28;20374;-86
2020/12/23 01:30:45;;;;;;;17.02;10.35;;;-0.60;86.00;;;;;;5036987;28;20482;-88
2020/12/23 01:33:11;;;;;;;15.07;9.77;;;-0.60;85.80;;;;;;5048790;28;20071;-84
2020/12/23 01:35:37;;;;;;;15.77;10.40;;;-0.60;85.80;;;;;;5041974;28;20029;-86
2020/12/23 01:38:04;;;;;;;13.35;8.88;;;-0.60;85.80;;;;;;5045111;28;20376;-86
2020/12/23 01:40:29;;;;;;;15.45;9.02;;;-0.50;85.70;;;;;;5053752;28;20017;-82
2020/12/23 01:42:55;;;;;;;17.85;9.68;;;-0.60;85.70;;;;;;5056922;28;20045;-83
2020/12/23 01:45:21;;;;;;;16.98;8.48;;;-0.50;85.60;;;;;;5052575;28;20025;-85
2020/12/23 01:47:47;;;;;;;19.42;12.35;;;-0.60;85.40;;;;;;5043291;28;20033;-87
2020/12/23 01:50:13;;;;;;;17.40;10.52;;;-0.60;85.30;;;;;;5021982;28;20071;-87
2020/12/23 01:52:39;;;;;;;15.95;9.30;;;-0.70;85.00;;;;;;5038296;28;20491;-88
2020/12/23 01:55:09;;;;;;;18.02;9.18;;;-0.60;85.30;;;;;;5040052;28;20022;-85
2020/12/23 01:57:35;;;;;;;13.02;7.88;;;-0.60;86.00;;;;;;5043547;28;20124;-88
2020/12/23 02:00:06;;;;;;;16.90;10.68;;;-0.60;84.90;;;;;;5046259;28;20072;-89
2020/12/23 02:02:35;;;;;;;21.08;11.30;;;-0.70;85.30;;;;;;5021509;28;20109;-88
2020/12/23 02:05:08;;;;;;;20.70;11.85;;;-0.70;85.70;;;;;;5018540;28;20113;-86
2020/12/23 02:07:35;;;;;;;16.67;9.95;;;-0.60;85.80;;;;;;5040819;28;20022;-88
2020/12/23 02:10:03;;;;;;;20.13;11.63;;;-0.60;85.70;;;;;;5044259;28;20021;-87
2020/12/23 02:12:29;;;;;;;20.40;11.68;;;-0.70;85.90;;;;;;5053240;28;20021;-86
2020/12/23 02:14:56;;;;;;;16.75;9.98;;;-0.60;86.00;;;;;;5045782;28;20481;-87
2020/12/23 02:17:23;;;;;;;20.30;10.95;;;-0.70;86.10;;;;;;5036796;28;20459;-88
2020/12/23 02:19:49;;;;;;;19.60;11.07;;;-0.70;86.40;;;;;;5064539;28;20033;-89
2020/12/23 02:22:21;;;;;;;23.98;13.05;;;-0.70;86.30;;;;;;5046987;28;20109;-87
2020/12/23 02:24:49;;;;;;;26.73;12.70;;;-0.70;86.20;;;;;;5027749;28;20542;-85
2020/12/23 02:27:15;;;;;;;18.35;10.93;;;-0.70;86.30;;;;;;5047693;28;20084;-87
2020/12/23 02:29:46;;;;;;;25.40;12.98;;;-0.60;86.50;;;;;;5045419;28;20096;-88
2020/12/23 02:32:12;;;;;;;25.90;11.95;;;-0.60;86.30;;;;;;5044379;28;20028;-88
2020/12/23 02:34:38;;;;;;;21.63;13.27;;;-0.60;86.00;;;;;;5042965;28;20028;-88
2020/12/23 02:37:06;;;;;;;21.07;11.97;;;-0.70;86.00;;;;;;5048217;28;20416;-87
2020/12/23 02:39:36;;;;;;;25.33;13.38;;;-0.70;86.00;;;;;;5027389;28;20045;-86
2020/12/23 02:42:03;;;;;;;22.58;12.35;;;-0.70;86.20;;;;;;5046256;28;20464;-87
2020/12/23 02:44:29;;;;;;;31.35;15.13;;;-0.70;86.00;;;;;;5013928;28;20017;-86
2020/12/23 02:47:02;;;;;;;24.30;12.52;;;-0.60;86.20;;;;;;5050330;28;20025;-87
2020/12/23 02:49:29;;;;;;;22.80;12.65;;;-0.60;86.10;;;;;;5036277;28;20021;-86
2020/12/23 02:51:56;;;;;;;25.10;13.57;;;-0.50;85.80;;;;;;5044314;28;20428;-84
2020/12/23 02:54:22;;;;;;;22.13;11.68;;;-0.50;85.60;;;;;;5047664;28;20021;-84
2020/12/23 02:56:50;;;;;;;23.23;13.23;;;-0.50;85.40;;;;;;5043214;28;20049;-84
2020/12/23 02:59:16;;;;;;;21.38;13.05;;;-0.50;85.50;;;;;;5038918;28;20417;-86
2020/12/23 03:01:42;;;;;;;26.70;15.63;;;-0.40;85.40;;;;;;5036289;28;20025;-87
2020/12/23 03:04:08;;;;;;;23.25;13.32;;;-0.50;85.20;;;;;;5048324;28;20029;-86
2020/12/23 03:06:35;;;;;;;21.92;11.30;;;-0.50;85.00;;;;;;5043077;28;20080;-85
2020/12/23 03:09:03;;;;;;;22.10;14.32;;;-0.60;85.10;;;;;;5037472;28;20420;-86
2020/12/23 03:11:29;;;;;;;23.95;15.85;;;-0.60;85.40;;;;;;5048735;28;20041;-85
2020/12/23 03:13:55;;;;;;;24.75;14.20;;;-0.70;85.60;;;;;;5051048;28;20013;-86
2020/12/23 03:16:20;;;;;;;23.95;14.40;;;-0.70;85.70;;;;;;5050490;28;20025;-86
2020/12/23 03:18:46;;;;;;;30.50;16.25;;;-0.70;85.80;;;;;;5051882;28;20025;-86
2020/12/23 03:21:12;;;;;;;24.05;14.57;;;-0.60;86.00;;;;;;5046403;28;20029;-85
2020/12/23 03:23:38;;;;;;;21.58;12.88;;;-0.60;85.80;;;;;;5036570;28;20032;-86
2020/12/23 03:26:05;;;;;;;26.15;13.85;;;-0.50;85.50;;;;;;5036791;28;20033;-88
2020/12/23 03:28:32;;;;;;;24.47;13.30;;;-0.50;85.60;;;;;;5038207;28;20025;-87
2020/12/23 03:30:59;;;;;;;23.02;12.93;;;-0.50;86.00;;;;;;5036989;28;20266;-86
2020/12/23 03:33:25;;;;;;;29.70;13.37;;;-0.50;85.30;;;;;;5037611;28;20429;-86
2020/12/23 03:35:51;;;;;;;32.70;15.10;;;-0.50;85.90;;;;;;5038797;28;20387;-84
2020/12/23 03:38:17;;;;;;;24.77;13.05;;;-0.50;85.10;;;;;;5042879;28;20029;-85
2020/12/23 03:40:43;;;;;;;25.20;13.32;;;-0.60;85.00;;;;;;5041253;28;20028;-87
2020/12/23 03:43:10;;;;;;;25.33;13.13;;;-0.70;85.40;;;;;;5039641;28;20548;-85
2020/12/23 03:45:36;;;;;;;28.05;15.77;;;-0.70;85.70;;;;;;5044776;28;20021;-87
2020/12/23 03:48:02;;;;;;;21.48;11.05;;;-0.60;85.60;;;;;;5040679;28;20026;-86
2020/12/23 03:50:28;;;;;;;24.48;14.00;;;-0.60;85.30;;;;;;5029204;28;20013;-86
2020/12/23 03:52:54;;;;;;;22.67;13.48;;;-0.80;85.50;;;;;;5035419;28;20033;-87
2020/12/23 03:55:20;;;;;;;25.05;14.45;;;-0.80;85.60;;;;;;5046592;28;20017;-85
2020/12/23 03:57:46;;;;;;;19.23;9.63;;;-0.80;85.60;;;;;;5053142;28;20095;-87
2020/12/23 04:00:12;;;;;;;18.33;10.48;;;-0.90;85.50;;;;;;5046705;28;20017;-85
2020/12/23 04:02:42;;;;;;;20.63;11.15;;;-1.10;85.80;;;;;;5027038;28;20026;-84
2020/12/23 04:05:08;;;;;;;21.02;11.40;;;-1.20;86.20;;;;;;5038688;28;20071;-86
2020/12/23 04:07:35;;;;;;;22.47;14.37;;;-1.20;86.20;;;;;;5048273;28;20029;-85
2020/12/23 04:10:01;;;;;;;17.90;10.90;;;-1.10;86.40;;;;;;5052700;28;20021;-88
2020/12/23 04:12:27;;;;;;;23.40;10.75;;;-1.10;86.30;;;;;;5044587;28;20029;-85
2020/12/23 04:14:53;;;;;;;21.83;12.07;;;-1.10;86.20;;;;;;5048586;28;20103;-87
2020/12/23 04:17:19;;;;;;;22.55;13.02;;;-1.10;86.40;;;;;;5046867;28;20037;-87
2020/12/23 04:19:45;;;;;;;18.20;11.18;;;-1.20;85.80;;;;;;5068314;28;20047;-87
2020/12/23 04:22:11;;;;;;;18.52;9.23;;;-1.30;86.00;;;;;;5049256;28;20051;-86
2020/12/23 04:24:37;;;;;;;15.98;10.23;;;-1.40;86.10;;;;;;5039848;28;20021;-86
2020/12/23 04:27:03;;;;;;;19.50;8.90;;;-1.40;86.60;;;;;;5038638;28;20061;-88
2020/12/23 04:29:29;;;;;;;11.20;6.32;;;-1.40;86.70;;;;;;5019652;28;20028;-89
2020/12/23 04:31:55;;;;;;;16.58;10.93;;;-1.40;86.60;;;;;;5019014;28;20482;-87
2020/12/23 04:34:21;;;;;;;18.15;10.82;;;-1.50;86.50;;;;;;5034801;28;20394;-86
2020/12/23 04:36:47;;;;;;;18.40;10.35;;;-1.50;86.50;;;;;;5038951;28;20056;-87
2020/12/23 04:39:13;;;;;;;17.95;8.68;;;-1.40;86.60;;;;;;5044864;28;20060;-89
2020/12/23 04:41:38;;;;;;;17.42;11.45;;;-1.40;86.30;;;;;;5046460;28;20481;-88
2020/12/23 04:44:06;;;;;;;18.83;9.20;;;-1.40;86.10;;;;;;5043383;28;20021;-89
2020/12/23 04:46:36;;;;;;;11.95;7.00;;;-1.40;86.20;;;;;;5046411;28;20018;-89
2020/12/23 04:49:03;;;;;;;15.40;9.50;;;-1.40;85.80;;;;;;5047569;28;20069;-91
2020/12/23 04:51:34;;;;;;;14.45;7.53;;;-1.40;85.70;;;;;;5044391;28;20028;-88
2020/12/23 04:54:01;;;;;;;14.38;9.23;;;-1.40;85.40;;;;;;5068403;28;20017;-88
2020/12/23 04:56:28;;;;;;;17.08;8.20;;;-1.50;85.10;;;;;;5047464;28;20091;-88
2020/12/23 04:58:59;;;;;;;15.52;8.40;;;-1.50;85.00;;;;;;5037559;28;20029;-89
2020/12/23 05:01:25;;;;;;;17.27;9.75;;;-1.50;84.50;;;;;;5042912;28;20013;-88
2020/12/23 05:03:55;;;;;;;15.77;9.30;;;-1.50;84.60;;;;;;5040375;28;20045;-86
2020/12/23 05:06:22;;;;;;;10.45;6.28;;;-1.50;84.50;;;;;;5037552;28;20104;-88
2020/12/23 05:08:48;;;;;;;16.92;9.43;;;-1.50;84.10;;;;;;5038472;28;20482;-88
2020/12/23 05:11:14;;;;;;;14.43;9.30;;;-1.60;83.80;;;;;;5049023;28;20055;-87
2020/12/23 05:13:41;;;;;;;11.32;7.35;;;-1.60;83.70;;;;;;5037841;28;20022;-89
2020/12/23 05:16:09;;;;;;;15.15;8.95;;;-1.60;83.70;;;;;;5034795;28;20040;-89
2020/12/23 05:18:41;;;;;;;12.27;7.38;;;-1.60;83.40;;;;;;5051571;28;20548;-88
2020/12/23 05:21:14;;;;;;;14.88;7.43;;;-1.60;83.20;;;;;;5054510;28;20100;-86
2020/12/23 05:23:42;;;;;;;13.80;7.78;;;-1.60;83.40;;;;;;5050828;28;20017;-86
2020/12/23 05:26:08;;;;;;;;;;;-1.60;83.40;;;;;;5044259;28;20017;-87
2020/12/23 05:28:35;;;;;;;12.27;7.15;;;-1.60;83.50;;;;;;5055578;28;20363;-87
2020/12/23 05:31:06;;;;;;;12.93;7.55;;;-1.60;83.30;;;;;;5054908;28;20075;-89
2020/12/23 05:33:36;;;;;;;10.60;7.05;;;-1.60;83.40;;;;;;5043477;28;20022;-89
2020/12/23 05:36:06;;;;;;;12.77;6.95;;;-1.60;83.20;;;;;;5040101;28;20608;-92
2020/12/23 05:38:34;;;;;;;11.63;8.07;;;-1.70;83.30;;;;;;5037592;28;20029;-88
2020/12/23 05:41:05;;;;;;;14.15;7.32;;;-1.70;83.40;;;;;;5056572;28;20139;-90
2020/12/23 05:43:31;;;;;;;15.48;8.27;;;-1.70;83.50;;;;;;5062388;28;20144;-89
2020/12/23 05:46:08;;;;;;;15.45;8.45;;;-1.70;84.30;;;;;;5038035;28;20485;-91
2020/12/23 05:48:37;;;;;;;11.18;7.78;;;-1.60;83.80;;;;;;5044912;28;20028;-88
2020/12/23 05:51:04;;;;;;;13.25;7.18;;;-1.50;83.50;;;;;;5043603;28;20111;-92
2020/12/23 05:53:31;;;;;;;;;;;-1.50;83.50;;;;;;5059444;28;20021;-89
2020/12/23 05:55:57;;;;;;;14.30;8.05;;;-1.60;83.00;;;;;;5055853;28;19904;-90
2020/12/23 05:58:30;;;;;;;15.18;10.27;;;-1.80;83.40;;;;;;5059615;28;20029;-89
2020/12/23 06:01:00;;;;;;;15.10;9.88;;;-1.80;84.10;;;;;;5074334;28;20020;-91
2020/12/23 06:03:36;;;;;;;10.73;5.95;;;-1.80;84.40;;;;;;5040124;28;20055;-90
2020/12/23 06:06:03;;;;;;;12.18;7.07;;;-1.80;83.90;;;;;;5057955;28;20025;-88
2020/12/23 06:08:55;;;;;;;13.55;8.52;;;-1.80;84.00;;;;;;5053961;28;20030;-90
2020/12/23 06:11:30;;;;;;;10.50;6.30;;;-1.80;84.00;;;;;;5036244;28;20048;-89
2020/12/23 06:14:16;;;;;;;12.15;6.40;;;-1.80;83.70;;;;;;5052193;28;20021;-89
2020/12/23 06:16:55;;;;;;;11.53;7.33;;;-1.90;83.40;;;;;;5069353;28;20036;-86
2020/12/23 06:19:45;;;;;;;13.05;7.90;;;-1.90;83.70;;;;;;5018781;28;20045;-91
2020/12/23 06:22:11;;;;;;;13.35;6.93;;;-1.80;83.70;;;;;;5031453;28;20025;-88
2020/12/23 06:24:39;;;;;;;14.70;8.35;;;-1.70;83.40;;;;;;5044535;28;20021;-90
2020/12/23 06:27:07;;;;;;;17.20;9.05;;;-1.80;83.00;;;;;;5024401;28;20113;-86
2020/12/23 06:29:36;;;;;;;14.23;9.02;;;-1.80;83.40;;;;;;5041068;28;20018;-89
2020/12/23 06:32:10;;;;;;;16.08;7.60;;;-1.80;83.60;;;;;;5054431;28;20029;-90
2020/12/23 06:34:40;;;;;;;15.13;7.78;;;-1.80;83.50;;;;;;5038357;28;20493;-89
2020/12/23 06:37:19;;;;;;;16.38;8.20;;;-1.80;83.10;;;;;;5038438;28;20390;-89
2020/12/23 06:39:46;;;;;;;12.73;8.93;;;-1.90;83.50;;;;;;5051957;28;20028;-89
2020/12/23 06:42:12;;;;;;;9.88;5.60;;;-2.00;83.30;;;;;;5042743;28;20020;-88
2020/12/23 06:44:54;;;;;;;10.23;6.47;;;-2.00;83.10;;;;;;5036565;28;20093;-91
2020/12/23 06:47:25;;;;;;;24.92;12.45;;;-2.20;83.20;;;;;;5031432;28;20125;-90
2020/12/23 06:49:53;;;;;;;10.70;6.47;;;-2.20;83.50;;;;;;5053073;28;20022;-93
2020/12/23 06:52:21;;;;;;;12.77;7.40;;;-2.10;83.10;;;;;;5049837;28;20049;-91
2020/12/23 06:54:52;;;;;;;17.30;6.80;;;-2.20;83.30;;;;;;5042448;28;20029;-84
2020/12/23 06:57:36;;;;;;;17.98;8.75;;;-2.20;83.30;;;;;;5044311;28;20093;-90
2020/12/23 07:00:11;;;;;;;11.38;7.45;;;-2.20;83.30;;;;;;5032311;28;20033;-82
2020/12/23 07:02:40;;;;;;;12.50;8.85;;;-2.20;82.90;;;;;;5038471;28;20018;-85
2020/12/23 07:05:07;;;;;;;14.73;7.30;;;-2.20;82.90;;;;;;5027597;28;20050;-84
2020/12/23 07:07:43;;;;;;;11.93;6.53;;;-2.30;82.60;;;;;;5039658;28;20025;-86
2020/12/23 07:10:12;;;;;;;13.10;8.07;;;-2.30;82.90;;;;;;5051692;28;20022;-85
2020/12/23 07:13:21;;;;;;;14.13;8.77;;;-2.40;83.00;;;;;;5029495;28;20036;-86
2020/12/23 07:15:50;;;;;;;17.70;6.03;;;-2.40;83.20;;;;;;5049410;28;20053;-87
2020/12/23 07:18:30;;;;;;;19.65;9.95;;;-2.40;83.10;;;;;;5047268;28;20032;-87
2020/12/23 07:21:03;;;;;;;13.57;7.72;;;-2.50;83.20;;;;;;5057320;28;20025;-87
2020/12/23 07:23:31;;;;;;;14.82;8.90;;;-2.40;83.10;;;;;;5056109;28;20374;-87
2020/12/23 07:26:03;;;;;;;15.88;8.23;;;-2.40;83.00;;;;;;5056317;28;20441;-86
2020/12/23 07:28:32;;;;;;;16.52;7.63;;;-2.50;82.50;;;;;;5056865;28;20025;-87
2020/12/23 07:30:59;;;;;;;16.05;9.75;;;-2.60;82.50;;;;;;5057972;28;20035;-86
2020/12/23 07:33:27;;;;;;;11.23;7.70;;;-2.60;82.70;;;;;;5056175;28;20108;-87
2020/12/23 07:35:56;;;;;;;12.75;7.85;;;-2.60;82.40;;;;;;5055779;28;20029;-86
2020/12/23 07:38:23;;;;;;;9.45;5.22;;;-2.60;82.40;;;;;;5055897;28;20037;-87
2020/12/23 07:40:51;;;;;;;;;;;-2.70;82.10;;;;;;5055741;28;20025;-85
2020/12/23 07:43:18;;;;;;;13.98;7.63;;;-2.80;82.30;;;;;;5040252;28;20269;-88
2020/12/23 07:45:46;;;;;;;14.88;9.63;;;-2.80;82.20;;;;;;5041313;28;20100;-87
2020/12/23 07:48:15;;;;;;;10.80;5.93;;;-2.70;82.50;;;;;;5043411;28;20022;-85
2020/12/23 07:50:43;;;;;;;15.43;8.65;;;-2.60;82.10;;;;;;5011743;28;20053;-87
2020/12/23 07:53:10;;;;;;;15.93;8.23;;;-2.60;81.90;;;;;;5017683;28;20494;-86
2020/12/23 07:55:37;;;;;;;15.50;8.65;;;-2.50;82.20;;;;;;5049296;28;20036;-87
2020/12/23 07:58:03;;;;;;;16.20;7.68;;;-2.50;81.80;;;;;;5042289;28;20033;-85
2020/12/23 08:00:29;;;;;;;15.93;7.55;;;-2.40;81.60;;;;;;5071150;28;20056;-87
2020/12/23 08:02:55;;;;;;;13.30;8.75;;;-2.30;82.00;;;;;;5049952;28;20048;-86
2020/12/23 08:05:21;;;;;;;13.55;8.77;;;-2.20;81.00;;;;;;5054470;28;20053;-86
2020/12/23 08:07:47;;;;;;;10.98;5.57;;;-2.10;80.50;;;;;;5023318;28;20021;-85
2020/12/23 08:10:18;;;;;;;16.70;7.60;;;-2.20;79.40;;;;;;5051842;28;20037;-86
2020/12/23 08:13:00;;;;;;;9.82;5.78;;;-2.00;79.40;;;;;;5053855;28;20145;-85
2020/12/23 08:15:26;;;;;;;11.25;7.88;;;-1.70;79.50;;;;;;5037624;28;20422;-85
2020/12/23 08:18:04;;;;;;;7.93;4.50;;;-1.60;78.60;;;;;;5036167;28;20033;-85
2020/12/23 08:20:31;;;;;;;15.48;7.70;;;-1.40;77.40;;;;;;5036496;28;20017;-87
2020/12/23 08:22:58;;;;;;;14.07;8.15;;;-1.20;77.10;;;;;;5036876;28;20485;-86
2020/12/23 08:25:25;;;;;;;10.10;6.10;;;-0.90;76.50;;;;;;5054097;28;20096;-86
2020/12/23 08:27:53;;;;;;;11.43;7.13;;;-0.60;75.40;;;;;;5026662;28;20116;-86
2020/12/23 08:30:21;;;;;;;10.07;5.35;;;-0.80;73.70;;;;;;5050703;28;20064;-85
2020/12/23 08:33:05;;;;;;;11.73;6.57;;;-0.90;74.20;;;;;;5054253;28;20024;-86
2020/12/23 08:35:39;;;;;;;10.88;6.85;;;-1.10;73.40;;;;;;5054851;28;20082;-88
2020/12/23 08:38:14;;;;;;;12.73;6.63;;;-1.20;73.70;;;;;;5055003;28;20031;-86
2020/12/23 08:41:04;;;;;;;12.95;5.85;;;-1.20;73.70;;;;;;5055659;28;20031;-87
2020/12/23 08:43:32;;;;;;;9.07;4.30;;;-1.00;74.40;;;;;;5036066;28;20029;-86
2020/12/23 08:45:59;;;;;;;4.72;3.33;;;-1.50;72.30;;;;;;5036380;28;20500;-85
2020/12/23 08:48:29;;;;;;;8.95;5.78;;;-1.80;73.50;;;;;;5042845;28;20390;-86
2020/12/23 08:51:00;;;;;;;6.57;4.28;;;-1.90;74.60;;;;;;5038236;28;20100;-85
2020/12/23 08:53:37;;;;;;;10.73;6.00;;;-1.80;74.60;;;;;;5055800;28;20021;-84
2020/12/23 08:56:23;;;;;;;10.88;6.80;;;-1.80;74.50;;;;;;5038313;28;20411;-87
2020/12/23 08:59:03;;;;;;;8.98;5.55;;;-1.60;74.70;;;;;;5048029;28;20393;-86
2020/12/23 09:01:31;;;;;;;10.88;7.22;;;-1.60;74.20;;;;;;5028726;28;20021;-85
2020/12/23 09:04:04;;;;;;;8.52;5.88;;;-1.50;74.40;;;;;;5041953;28;20041;-84
2020/12/23 09:06:30;;;;;;;9.30;4.88;;;-1.40;73.40;;;;;;5059003;28;20017;-89
2020/12/23 09:09:28;;;;;;;8.10;4.32;;;-1.20;73.90;;;;;;5046211;28;20028;-86
2020/12/23 09:11:57;;;;;;;6.55;3.70;;;-1.20;71.70;;;;;;5040973;28;20045;-86
2020/12/23 09:14:33;;;;;;;9.45;5.32;;;-1.40;72.60;;;;;;5053512;28;20036;-87
2020/12/23 09:17:22;;;;;;;5.53;3.67;;;-1.60;72.60;;;;;;5048447;28;20033;-84
2020/12/23 09:19:48;;;;;;;8.90;5.05;;;-1.50;72.80;;;;;;5061888;28;20043;-83
2020/12/23 09:22:32;;;;;;;10.90;5.45;;;-1.60;72.70;;;;;;5069646;28;20421;-86
2020/12/23 09:25:22;;;;;;;10.30;5.03;;;-1.60;73.30;;;;;;5053766;28;20025;-84
2020/12/23 09:27:53;;;;;;;7.35;4.90;;;-1.70;73.70;;;;;;5045378;28;20035;-87
2020/12/23 09:30:52;;;;;;;9.00;5.53;;;-1.40;73.90;;;;;;5048246;28;20052;-87
2020/12/23 09:33:27;;;;;;;8.98;5.00;;;-1.20;73.60;;;;;;5033136;28;20033;-86
2020/12/23 09:36:05;;;;;;;11.30;6.03;;;-1.10;72.60;;;;;;5003455;28;20052;-84
2020/12/23 09:38:34;;;;;;;6.65;4.35;;;-1.00;72.40;;;;;;5033245;28;20033;-87
2020/12/23 09:41:01;;;;;;;6.93;4.07;;;-1.40;71.40;;;;;;5052773;28;20040;-84
2020/12/23 09:43:30;;;;;;;7.20;4.47;;;-1.70;72.90;;;;;;5057601;28;20110;-85
2020/12/23 09:45:58;;;;;;;6.47;4.35;;;-1.90;73.40;;;;;;5054740;28;20044;-86
2020/12/23 09:48:24;;;;;;;;;;;-2.10;74.20;;;;;;5054576;28;20104;-86
2020/12/23 09:50:54;;;;;;;12.98;6.47;;;-2.20;74.80;;;;;;5037172;28;20022;-86
2020/12/23 09:53:24;;;;;;;7.85;4.43;;;-2.20;75.10;;;;;;5045165;28;20449;-87
2020/12/23 09:55:50;;;;;;;12.25;5.03;;;-2.20;75.20;;;;;;5042734;28;20022;-87
2020/12/23 09:58:17;;;;;;;11.90;5.65;;;-2.10;75.50;;;;;;5016546;28;20092;-87
2020/12/23 10:00:43;;;;;;;10.50;6.33;;;-2.00;75.10;;;;;;5037562;28;20029;-87
2020/12/23 10:03:10;;;;;;;5.97;4.13;;;-2.00;75.30;;;;;;5068009;28;20032;-85
2020/12/23 10:05:36;;;;;;;8.13;4.82;;;-2.10;75.20;;;;;;5061319;28;20097;-85
2020/12/23 10:08:03;;;;;;;7.33;4.40;;;-2.10;75.60;;;;;;5043043;28;20060;-85
2020/12/23 10:10:29;;;;;;;10.68;4.15;;;-2.40;76.00;;;;;;5048699;28;20477;-86
2020/12/23 10:12:55;;;;;;;7.32;4.00;;;-2.40;76.60;;;;;;5057153;28;20025;-87
2020/12/23 10:15:21;;;;;;;8.13;4.07;;;-2.40;76.80;;;;;;5055293;28;20093;-86
2020/12/23 10:17:46;;;;;;;7.28;4.15;;;-2.40;76.90;;;;;;5052541;28;20182;-84
2020/12/23 10:20:13;;;;;;;11.20;5.80;;;-2.30;77.10;;;;;;5057931;28;20097;-84
2020/12/23 10:22:39;;;;;;;10.20;5.82;;;-2.30;77.00;;;;;;5039000;28;20216;-86
2020/12/23 10:25:07;;;;;;;9.98;5.22;;;-2.20;76.70;;;;;;5023198;28;20037;-86
2020/12/23 10:27:33;;;;;;;20.80;7.95;;;-2.20;76.60;;;;;;5057139;28;20532;-84
2020/12/23 10:29:59;;;;;;;8.93;4.78;;;-2.20;76.90;;;;;;5057280;28;20048;-87
2020/12/23 10:32:25;;;;;;;8.75;5.47;;;-2.20;76.90;;;;;;5042422;28;20478;-86
2020/12/23 10:34:51;;;;;;;11.23;6.30;;;-2.10;76.90;;;;;;5057054;28;20024;-86
2020/12/23 10:37:19;;;;;;;10.18;6.88;;;-2.00;76.90;;;;;;5011144;28;20485;-84
2020/12/23 10:39:46;;;;;;;8.07;5.20;;;-2.00;76.50;;;;;;5047270;28;20021;-86
2020/12/23 10:42:14;;;;;;;9.45;4.38;;;-2.10;76.40;;;;;;5021099;28;20076;-85
2020/12/23 10:44:40;;;;;;;12.85;5.72;;;-2.30;76.80;;;;;;5057757;28;20029;-86
2020/12/23 10:47:06;;;;;;;11.45;5.50;;;-2.40;77.40;;;;;;5024609;28;20083;-87
2020/12/23 10:49:31;;;;;;;8.48;5.05;;;-2.40;77.80;;;;;;5043994;28;20053;-88
2020/12/23 10:51:58;;;;;;;4.57;2.70;;;-2.40;77.60;;;;;;5022989;28;20035;-86
2020/12/23 10:54:28;;;;;;;8.95;5.07;;;-2.50;77.80;;;;;;5058349;28;20029;-86
2020/12/23 10:56:55;;;;;;;10.40;5.28;;;-2.50;78.30;;;;;;5058928;28;20371;-86
2020/12/23 10:59:21;;;;;;;8.95;6.25;;;-2.50;78.00;;;;;;5056037;28;20069;-84
2020/12/23 11:01:54;;;;;;;8.25;3.85;;;-2.50;78.30;;;;;;5038764;28;20041;-85
2020/12/23 11:04:21;;;;;;;8.20;3.75;;;-2.50;78.20;;;;;;5039023;28;20371;-87
2020/12/23 11:06:48;;;;;;;9.70;4.57;;;-2.60;78.60;;;;;;5030188;28;20025;-87
2020/12/23 11:09:14;;;;;;;;;;;-2.60;78.60;;;;;;5062239;28;20442;-85
2020/12/23 11:11:40;;;;;;;11.50;6.10;;;-2.60;78.60;;;;;;5062284;28;19905;-84
2020/12/23 11:14:06;;;;;;;7.88;4.25;;;-2.70;78.80;;;;;;5071715;28;20025;-84
2020/12/23 11:16:34;;;;;;;10.65;3.75;;;-2.70;79.00;;;;;;5073494;28;20086;-88
2020/12/23 11:19:00;;;;;;;10.15;5.47;;;-2.70;79.00;;;;;;5060714;28;20040;-84
2020/12/23 11:21:26;;;;;;;10.75;5.68;;;-2.70;79.20;;;;;;5044713;28;20025;-85
2020/12/23 11:23:52;;;;;;;10.32;5.28;;;-2.60;79.20;;;;;;5049841;28;20029;-84
2020/12/23 11:26:21;;;;;;;7.82;5.05;;;-2.40;79.10;;;;;;5026599;28;20121;-85
2020/12/23 11:28:47;;;;;;;15.30;5.75;;;-2.40;78.70;;;;;;5039706;28;20044;-86
2020/12/23 11:31:14;;;;;;;16.58;7.88;;;-2.50;78.30;;;;;;5057451;28;20040;-84
2020/12/23 11:33:46;;;;;;;7.75;5.07;;;-2.60;78.70;;;;;;5042808;28;20013;-87
2020/12/23 11:36:14;;;;;;;12.43;7.22;;;-2.60;79.00;;;;;;5039615;28;20482;-85
2020/12/23 11:38:40;;;;;;;9.20;5.93;;;-2.70;79.10;;;;;;5039405;28;20037;-85
2020/12/23 11:41:06;;;;;;;9.43;6.43;;;-2.70;79.30;;;;;;5038324;28;20017;-86
2020/12/23 11:43:32;;;;;;;9.50;5.40;;;-2.70;79.40;;;;;;5062318;28;20044;-85
2020/12/23 11:45:58;;;;;;;15.38;7.68;;;-2.80;79.20;;;;;;5048632;28;20029;-87
2020/12/23 11:48:24;;;;;;;9.45;5.40;;;-2.80;79.30;;;;;;5060105;28;20165;-86
2020/12/23 11:50:50;;;;;;;13.73;4.78;;;-2.80;79.50;;;;;;5037878;28;20036;-85
2020/12/23 11:53:15;;;;;;;13.25;8.13;;;-2.80;79.60;;;;;;5055463;28;20025;-87
2020/12/23 11:55:41;;;;;;;9.73;5.10;;;-2.80;79.80;;;;;;5041561;28;20025;-88
2020/12/23 11:58:07;;;;;;;10.90;5.82;;;-2.70;79.60;;;;;;5057039;28;20029;-87
2020/12/23 12:00:33;;;;;;;9.13;4.47;;;-2.80;79.60;;;;;;5044168;28;20061;-86
2020/12/23 12:02:58;;;;;;;8.52;4.68;;;-2.90;79.90;;;;;;5061274;28;20028;-87
2020/12/23 12:05:24;;;;;;;11.68;6.45;;;-3.00;80.10;;;;;;5073946;28;20406;-86
2020/12/23 12:07:50;;;;;;;9.77;6.25;;;-3.10;80.50;;;;;;5043492;28;20029;-86
2020/12/23 12:10:16;;;;;;;8.93;5.57;;;-3.10;80.80;;;;;;5055526;28;20036;-85
2020/12/23 12:12:42;;;;;;;9.38;5.68;;;-3.20;80.90;;;;;;5058723;28;20025;-89
2020/12/23 12:15:08;;;;;;;9.25;6.43;;;-3.20;81.00;;;;;;5057794;28;20024;-84
2020/12/23 12:17:34;;;;;;;15.73;6.07;;;-3.20;81.20;;;;;;5036445;28;20033;-85
2020/12/23 12:20:00;;;;;;;9.75;5.57;;;-3.30;81.30;;;;;;5035469;28;20068;-86
2020/12/23 12:22:27;;;;;;;11.13;4.38;;;-3.40;81.30;;;;;;5024215;28;20028;-84
2020/12/23 12:24:53;;;;;;;7.13;4.32;;;-3.50;81.70;;;;;;5054745;28;20051;-87
2020/12/23 12:27:19;;;;;;;9.40;5.57;;;-3.50;81.80;;;;;;5054774;28;20030;-86
2020/12/23 12:29:46;;;;;;;6.72;4.95;;;-3.60;81.90;;;;;;5053481;28;20429;-83
2020/12/23 12:32:11;;;;;;;12.18;6.20;;;-3.60;82.10;;;;;;5050991;28;20022;-86
2020/12/23 12:34:37;;;;;;;6.45;3.17;;;-3.60;82.20;;;;;;5044700;28;20036;-87
2020/12/23 12:37:03;;;;;;;6.35;5.05;;;-3.60;82.30;;;;;;5040289;28;20060;-85
2020/12/23 12:39:29;;;;;;;7.53;3.97;;;-3.70;82.60;;;;;;5035854;28;20459;-86
2020/12/23 12:41:58;;;;;;;7.43;5.22;;;-3.70;82.70;;;;;;5051205;28;20100;-85
2020/12/23 12:44:24;;;;;;;7.85;4.07;;;-3.70;82.80;;;;;;5056810;28;20473;-85